sensor_id;sensor_type;location;lat;lon;timestamp;P1;durP1;ratioP1;P2;durP2;ratioP2
4724;SDS011;2376;53.544;10.226;2022-10-16T00:01:30;7.67;;;6.97;;
4724;SDS011;2376;53.544;10.226;2022-10-16T00:03:58;9.27;;;8.47;;
4724;SDS011;2376;53.544;10.226;2022-10-16T00:06:26;7.93;;;7.33;;
4724;SDS011;2376;53.544;10.226;2022-10-16T00:08:53;8.03;;;7.43;;
4724;SDS011;2376;53.544;10.226;2022-10-16T00:11:22;7.43;;;6.73;;
4724;SDS011;2376;53.544;10.226;2022-10-16T00:13:51;8.20;;;7.50;;
4724;SDS011;2376;53.544;10.226;2022-10-16T00:16:20;7.37;;;6.70;;
4724;SDS011;2376;53.544;10.226;2022-10-16T00:18:46;7.93;;;7.13;;
4724;SDS011;2376;53.544;10.226;2022-10-16T00:21:14;7.80;;;7.00;;
4724;SDS011;2376;53.544;10.226;2022-10-16T00:23:43;8.30;;;7.07;;
4724;SDS011;2376;53.544;10.226;2022-10-16T00:26:11;7.53;;;7.03;;
4724;SDS011;2376;53.544;10.226;2022-10-16T00:28:40;7.73;;;7.13;;
4724;SDS011;2376;53.544;10.226;2022-10-16T00:31:08;7.57;;;7.07;;
4724;SDS011;2376;53.544;10.226;2022-10-16T00:33:36;8.00;;;7.40;;
4724;SDS011;2376;53.544;10.226;2022-10-16T00:36:05;7.07;;;6.47;;
4724;SDS011;2376;53.544;10.226;2022-10-16T00:38:33;6.93;;;6.43;;
4724;SDS011;2376;53.544;10.226;2022-10-16T00:41:00;8.07;;;7.00;;
4724;SDS011;2376;53.544;10.226;2022-10-16T00:43:34;7.23;;;6.63;;
4724;SDS011;2376;53.544;10.226;2022-10-16T00:46:07;8.73;;;7.10;;
4724;SDS011;2376;53.544;10.226;2022-10-16T00:48:38;8.30;;;6.87;;
4724;SDS011;2376;53.544;10.226;2022-10-16T00:51:05;7.83;;;7.10;;
4724;SDS011;2376;53.544;10.226;2022-10-16T00:53:33;6.57;;;5.97;;
4724;SDS011;2376;53.544;10.226;2022-10-16T00:56:00;7.63;;;6.93;;
4724;SDS011;2376;53.544;10.226;2022-10-16T00:58:28;6.70;;;6.10;;
4724;SDS011;2376;53.544;10.226;2022-10-16T01:00:54;6.80;;;6.40;;
4724;SDS011;2376;53.544;10.226;2022-10-16T01:03:24;9.93;;;6.70;;
4724;SDS011;2376;53.544;10.226;2022-10-16T01:05:57;6.03;;;5.63;;
4724;SDS011;2376;53.544;10.226;2022-10-16T01:08:31;7.30;;;6.43;;
4724;SDS011;2376;53.544;10.226;2022-10-16T01:11:05;14.27;;;6.60;;
4724;SDS011;2376;53.544;10.226;2022-10-16T01:13:41;5.97;;;5.47;;
4724;SDS011;2376;53.544;10.226;2022-10-16T01:16:11;6.70;;;5.73;;
4724;SDS011;2376;53.544;10.226;2022-10-16T01:18:43;6.50;;;6.00;;
4724;SDS011;2376;53.544;10.226;2022-10-16T01:21:16;6.90;;;6.27;;
4724;SDS011;2376;53.544;10.226;2022-10-16T01:23:49;6.07;;;5.47;;
4724;SDS011;2376;53.544;10.226;2022-10-16T01:26:27;7.90;;;6.60;;
4724;SDS011;2376;53.544;10.226;2022-10-16T01:29:05;5.17;;;4.77;;
4724;SDS011;2376;53.544;10.226;2022-10-16T01:31:35;5.50;;;5.00;;
4724;SDS011;2376;53.544;10.226;2022-10-16T01:34:06;4.93;;;4.43;;
4724;SDS011;2376;53.544;10.226;2022-10-16T01:36:38;6.93;;;5.07;;
4724;SDS011;2376;53.544;10.226;2022-10-16T01:39:08;5.83;;;4.10;;
4724;SDS011;2376;53.544;10.226;2022-10-16T01:41:38;5.30;;;4.90;;
4724;SDS011;2376;53.544;10.226;2022-10-16T01:44:10;6.83;;;4.60;;
4724;SDS011;2376;53.544;10.226;2022-10-16T01:46:40;4.47;;;4.07;;
4724;SDS011;2376;53.544;10.226;2022-10-16T01:49:09;4.07;;;3.77;;
4724;SDS011;2376;53.544;10.226;2022-10-16T01:51:38;4.40;;;4.03;;
4724;SDS011;2376;53.544;10.226;2022-10-16T01:54:06;6.43;;;3.80;;
4724;SDS011;2376;53.544;10.226;2022-10-16T01:56:35;4.47;;;4.17;;
4724;SDS011;2376;53.544;10.226;2022-10-16T01:59:05;4.50;;;3.43;;
4724;SDS011;2376;53.544;10.226;2022-10-16T02:01:37;7.87;;;3.27;;
4724;SDS011;2376;53.544;10.226;2022-10-16T02:04:09;3.23;;;2.93;;
4724;SDS011;2376;53.544;10.226;2022-10-16T02:06:39;4.10;;;3.70;;
4724;SDS011;2376;53.544;10.226;2022-10-16T02:09:06;3.63;;;3.33;;
4724;SDS011;2376;53.544;10.226;2022-10-16T02:11:33;3.83;;;3.13;;
4724;SDS011;2376;53.544;10.226;2022-10-16T02:14:00;5.50;;;3.27;;
4724;SDS011;2376;53.544;10.226;2022-10-16T02:16:33;3.30;;;3.00;;
4724;SDS011;2376;53.544;10.226;2022-10-16T02:19:02;3.30;;;3.00;;
4724;SDS011;2376;53.544;10.226;2022-10-16T02:21:29;3.27;;;2.80;;
4724;SDS011;2376;53.544;10.226;2022-10-16T02:24:02;5.57;;;2.60;;
4724;SDS011;2376;53.544;10.226;2022-10-16T02:26:34;3.57;;;2.63;;
4724;SDS011;2376;53.544;10.226;2022-10-16T02:29:05;2.93;;;2.30;;
4724;SDS011;2376;53.544;10.226;2022-10-16T02:31:38;4.93;;;2.40;;
4724;SDS011;2376;53.544;10.226;2022-10-16T02:34:10;3.13;;;2.40;;
4724;SDS011;2376;53.544;10.226;2022-10-16T02:36:38;3.57;;;2.13;;
4724;SDS011;2376;53.544;10.226;2022-10-16T02:39:06;3.23;;;2.47;;
4724;SDS011;2376;53.544;10.226;2022-10-16T02:41:34;2.50;;;1.90;;
4724;SDS011;2376;53.544;10.226;2022-10-16T02:44:00;2.80;;;2.30;;
4724;SDS011;2376;53.544;10.226;2022-10-16T02:46:27;6.00;;;2.67;;
4724;SDS011;2376;53.544;10.226;2022-10-16T02:48:54;3.37;;;2.07;;
4724;SDS011;2376;53.544;10.226;2022-10-16T02:51:22;2.60;;;2.03;;
4724;SDS011;2376;53.544;10.226;2022-10-16T02:53:49;2.63;;;2.43;;
4724;SDS011;2376;53.544;10.226;2022-10-16T02:56:16;4.13;;;2.13;;
4724;SDS011;2376;53.544;10.226;2022-10-16T02:58:42;1.80;;;1.70;;
4724;SDS011;2376;53.544;10.226;2022-10-16T03:01:09;2.40;;;2.20;;
4724;SDS011;2376;53.544;10.226;2022-10-16T03:03:37;2.23;;;2.00;;
4724;SDS011;2376;53.544;10.226;2022-10-16T03:06:04;2.17;;;2.07;;
4724;SDS011;2376;53.544;10.226;2022-10-16T03:08:32;2.70;;;1.87;;
4724;SDS011;2376;53.544;10.226;2022-10-16T03:10:59;3.00;;;1.70;;
4724;SDS011;2376;53.544;10.226;2022-10-16T03:13:26;2.10;;;2.00;;
4724;SDS011;2376;53.544;10.226;2022-10-16T03:15:53;2.43;;;1.67;;
4724;SDS011;2376;53.544;10.226;2022-10-16T03:18:20;3.00;;;2.30;;
4724;SDS011;2376;53.544;10.226;2022-10-16T03:20:46;6.13;;;2.03;;
4724;SDS011;2376;53.544;10.226;2022-10-16T03:23:13;2.07;;;1.97;;
4724;SDS011;2376;53.544;10.226;2022-10-16T03:25:41;2.23;;;2.07;;
4724;SDS011;2376;53.544;10.226;2022-10-16T03:28:08;3.10;;;1.90;;
4724;SDS011;2376;53.544;10.226;2022-10-16T03:30:35;2.40;;;2.30;;
4724;SDS011;2376;53.544;10.226;2022-10-16T03:33:01;1.67;;;1.57;;
4724;SDS011;2376;53.544;10.226;2022-10-16T03:35:28;3.57;;;1.90;;
4724;SDS011;2376;53.544;10.226;2022-10-16T03:37:55;2.87;;;1.83;;
4724;SDS011;2376;53.544;10.226;2022-10-16T03:40:22;2.63;;;2.23;;
4724;SDS011;2376;53.544;10.226;2022-10-16T03:42:50;1.93;;;1.83;;
4724;SDS011;2376;53.544;10.226;2022-10-16T03:45:19;1.83;;;1.60;;
4724;SDS011;2376;53.544;10.226;2022-10-16T03:47:46;1.73;;;1.63;;
4724;SDS011;2376;53.544;10.226;2022-10-16T03:50:12;2.97;;;1.80;;
4724;SDS011;2376;53.544;10.226;2022-10-16T03:52:39;3.67;;;1.77;;
4724;SDS011;2376;53.544;10.226;2022-10-16T03:55:06;3.53;;;2.07;;
4724;SDS011;2376;53.544;10.226;2022-10-16T03:57:33;4.70;;;1.80;;
4724;SDS011;2376;53.544;10.226;2022-10-16T04:00:02;4.13;;;2.00;;
4724;SDS011;2376;53.544;10.226;2022-10-16T04:02:29;2.57;;;1.80;;
4724;SDS011;2376;53.544;10.226;2022-10-16T04:04:56;3.70;;;1.87;;
4724;SDS011;2376;53.544;10.226;2022-10-16T04:07:22;2.70;;;1.63;;
4724;SDS011;2376;53.544;10.226;2022-10-16T04:09:49;2.50;;;1.70;;
4724;SDS011;2376;53.544;10.226;2022-10-16T04:12:17;7.57;;;1.87;;
4724;SDS011;2376;53.544;10.226;2022-10-16T04:14:43;2.67;;;1.77;;
4724;SDS011;2376;53.544;10.226;2022-10-16T04:17:11;3.73;;;2.53;;
4724;SDS011;2376;53.544;10.226;2022-10-16T04:19:38;2.30;;;1.70;;
4724;SDS011;2376;53.544;10.226;2022-10-16T04:22:05;7.70;;;2.10;;
4724;SDS011;2376;53.544;10.226;2022-10-16T04:24:32;2.57;;;1.60;;
4724;SDS011;2376;53.544;10.226;2022-10-16T04:26:58;2.90;;;1.70;;
4724;SDS011;2376;53.544;10.226;2022-10-16T04:29:25;2.00;;;1.73;;
4724;SDS011;2376;53.544;10.226;2022-10-16T04:31:52;4.53;;;1.63;;
4724;SDS011;2376;53.544;10.226;2022-10-16T04:34:20;3.63;;;2.03;;
4724;SDS011;2376;53.544;10.226;2022-10-16T04:36:47;5.90;;;1.80;;
4724;SDS011;2376;53.544;10.226;2022-10-16T04:39:14;2.40;;;1.50;;
4724;SDS011;2376;53.544;10.226;2022-10-16T04:41:41;2.97;;;1.60;;
4724;SDS011;2376;53.544;10.226;2022-10-16T04:44:08;1.63;;;1.40;;
4724;SDS011;2376;53.544;10.226;2022-10-16T04:46:35;1.80;;;1.63;;
4724;SDS011;2376;53.544;10.226;2022-10-16T04:49:02;2.20;;;1.67;;
4724;SDS011;2376;53.544;10.226;2022-10-16T04:51:30;1.57;;;1.27;;
4724;SDS011;2376;53.544;10.226;2022-10-16T04:53:57;2.00;;;1.90;;
4724;SDS011;2376;53.544;10.226;2022-10-16T04:56:23;3.03;;;2.10;;
4724;SDS011;2376;53.544;10.226;2022-10-16T04:58:50;2.60;;;1.50;;
4724;SDS011;2376;53.544;10.226;2022-10-16T05:01:17;4.37;;;2.00;;
4724;SDS011;2376;53.544;10.226;2022-10-16T05:03:43;2.67;;;1.67;;
4724;SDS011;2376;53.544;10.226;2022-10-16T05:06:10;3.53;;;2.03;;
4724;SDS011;2376;53.544;10.226;2022-10-16T05:08:38;1.67;;;1.57;;
4724;SDS011;2376;53.544;10.226;2022-10-16T05:11:05;5.40;;;2.07;;
4724;SDS011;2376;53.544;10.226;2022-10-16T05:13:32;2.97;;;1.53;;
4724;SDS011;2376;53.544;10.226;2022-10-16T05:15:59;3.30;;;1.93;;
4724;SDS011;2376;53.544;10.226;2022-10-16T05:18:25;4.20;;;1.70;;
4724;SDS011;2376;53.544;10.226;2022-10-16T05:20:52;2.47;;;1.70;;
4724;SDS011;2376;53.544;10.226;2022-10-16T05:23:19;2.60;;;1.70;;
4724;SDS011;2376;53.544;10.226;2022-10-16T05:25:52;4.20;;;1.83;;
4724;SDS011;2376;53.544;10.226;2022-10-16T05:28:20;3.80;;;1.70;;
4724;SDS011;2376;53.544;10.226;2022-10-16T05:30:47;4.30;;;2.00;;
4724;SDS011;2376;53.544;10.226;2022-10-16T05:33:13;3.07;;;1.73;;
4724;SDS011;2376;53.544;10.226;2022-10-16T05:35:40;3.17;;;1.90;;
4724;SDS011;2376;53.544;10.226;2022-10-16T05:38:07;2.70;;;1.90;;
4724;SDS011;2376;53.544;10.226;2022-10-16T05:40:34;2.47;;;2.10;;
4724;SDS011;2376;53.544;10.226;2022-10-16T05:43:02;2.30;;;2.10;;
4724;SDS011;2376;53.544;10.226;2022-10-16T05:45:29;4.57;;;2.13;;
4724;SDS011;2376;53.544;10.226;2022-10-16T05:47:55;2.60;;;2.40;;
4724;SDS011;2376;53.544;10.226;2022-10-16T05:50:22;3.30;;;1.90;;
4724;SDS011;2376;53.544;10.226;2022-10-16T05:52:49;2.97;;;1.77;;
4724;SDS011;2376;53.544;10.226;2022-10-16T05:55:16;2.03;;;1.87;;
4724;SDS011;2376;53.544;10.226;2022-10-16T05:57:42;2.03;;;1.93;;
4724;SDS011;2376;53.544;10.226;2022-10-16T06:00:11;1.57;;;1.47;;
4724;SDS011;2376;53.544;10.226;2022-10-16T06:02:38;3.60;;;2.10;;
4724;SDS011;2376;53.544;10.226;2022-10-16T06:05:05;3.00;;;1.93;;
4724;SDS011;2376;53.544;10.226;2022-10-16T06:07:34;2.27;;;2.17;;
4724;SDS011;2376;53.544;10.226;2022-10-16T06:10:01;2.80;;;1.93;;
4724;SDS011;2376;53.544;10.226;2022-10-16T06:12:29;2.07;;;1.93;;
4724;SDS011;2376;53.544;10.226;2022-10-16T06:14:56;2.80;;;1.90;;
4724;SDS011;2376;53.544;10.226;2022-10-16T06:17:24;3.00;;;2.00;;
4724;SDS011;2376;53.544;10.226;2022-10-16T06:19:51;2.63;;;2.30;;
4724;SDS011;2376;53.544;10.226;2022-10-16T06:22:17;2.03;;;1.90;;
4724;SDS011;2376;53.544;10.226;2022-10-16T06:24:44;2.00;;;1.80;;
4724;SDS011;2376;53.544;10.226;2022-10-16T06:27:12;4.20;;;1.90;;
4724;SDS011;2376;53.544;10.226;2022-10-16T06:29:39;3.70;;;2.20;;
4724;SDS011;2376;53.544;10.226;2022-10-16T06:32:06;2.20;;;2.10;;
4724;SDS011;2376;53.544;10.226;2022-10-16T06:34:34;3.60;;;1.90;;
4724;SDS011;2376;53.544;10.226;2022-10-16T06:37:00;3.37;;;2.20;;
4724;SDS011;2376;53.544;10.226;2022-10-16T06:39:27;2.07;;;1.87;;
4724;SDS011;2376;53.544;10.226;2022-10-16T06:41:54;9.33;;;2.40;;
4724;SDS011;2376;53.544;10.226;2022-10-16T06:44:20;2.50;;;2.30;;
4724;SDS011;2376;53.544;10.226;2022-10-16T06:46:47;3.40;;;2.10;;
4724;SDS011;2376;53.544;10.226;2022-10-16T06:49:14;7.33;;;2.10;;
4724;SDS011;2376;53.544;10.226;2022-10-16T06:51:47;2.53;;;2.23;;
4724;SDS011;2376;53.544;10.226;2022-10-16T06:54:14;5.50;;;2.33;;
4724;SDS011;2376;53.544;10.226;2022-10-16T06:56:42;3.33;;;2.17;;
4724;SDS011;2376;53.544;10.226;2022-10-16T06:59:09;2.40;;;2.20;;
4724;SDS011;2376;53.544;10.226;2022-10-16T07:01:36;2.70;;;2.50;;
4724;SDS011;2376;53.544;10.226;2022-10-16T07:04:03;3.20;;;2.90;;
4724;SDS011;2376;53.544;10.226;2022-10-16T07:06:31;4.03;;;3.30;;
4724;SDS011;2376;53.544;10.226;2022-10-16T07:09:02;4.20;;;2.53;;
4724;SDS011;2376;53.544;10.226;2022-10-16T07:11:30;9.30;;;2.67;;
4724;SDS011;2376;53.544;10.226;2022-10-16T07:13:57;5.87;;;3.47;;
4724;SDS011;2376;53.544;10.226;2022-10-16T07:16:25;3.50;;;2.53;;
4724;SDS011;2376;53.544;10.226;2022-10-16T07:18:53;3.77;;;3.47;;
4724;SDS011;2376;53.544;10.226;2022-10-16T07:21:23;3.23;;;3.10;;
4724;SDS011;2376;53.544;10.226;2022-10-16T07:23:51;5.83;;;3.77;;
4724;SDS011;2376;53.544;10.226;2022-10-16T07:26:20;3.60;;;3.30;;
4724;SDS011;2376;53.544;10.226;2022-10-16T07:28:47;3.30;;;3.10;;
4724;SDS011;2376;53.544;10.226;2022-10-16T07:31:14;3.33;;;3.10;;
4724;SDS011;2376;53.544;10.226;2022-10-16T07:33:42;4.10;;;2.90;;
4724;SDS011;2376;53.544;10.226;2022-10-16T07:36:10;3.67;;;3.37;;
4724;SDS011;2376;53.544;10.226;2022-10-16T07:38:37;5.07;;;3.13;;
4724;SDS011;2376;53.544;10.226;2022-10-16T07:41:05;3.53;;;2.73;;
4724;SDS011;2376;53.544;10.226;2022-10-16T07:43:34;9.53;;;3.30;;
4724;SDS011;2376;53.544;10.226;2022-10-16T07:46:01;3.47;;;2.70;;
4724;SDS011;2376;53.544;10.226;2022-10-16T07:48:28;5.00;;;2.97;;
4724;SDS011;2376;53.544;10.226;2022-10-16T07:50:57;3.00;;;2.80;;
4724;SDS011;2376;53.544;10.226;2022-10-16T07:53:24;5.23;;;3.07;;
4724;SDS011;2376;53.544;10.226;2022-10-16T07:55:52;3.13;;;2.97;;
4724;SDS011;2376;53.544;10.226;2022-10-16T07:58:22;3.20;;;3.00;;
4724;SDS011;2376;53.544;10.226;2022-10-16T08:00:50;4.23;;;3.00;;
4724;SDS011;2376;53.544;10.226;2022-10-16T08:03:17;3.57;;;2.50;;
4724;SDS011;2376;53.544;10.226;2022-10-16T08:05:44;2.40;;;2.20;;
4724;SDS011;2376;53.544;10.226;2022-10-16T08:08:11;4.57;;;2.77;;
4724;SDS011;2376;53.544;10.226;2022-10-16T08:10:40;2.80;;;2.60;;
4724;SDS011;2376;53.544;10.226;2022-10-16T08:13:07;5.60;;;3.10;;
4724;SDS011;2376;53.544;10.226;2022-10-16T08:15:34;3.20;;;2.47;;
4724;SDS011;2376;53.544;10.226;2022-10-16T08:18:02;2.80;;;2.60;;
4724;SDS011;2376;53.544;10.226;2022-10-16T08:20:31;3.93;;;2.70;;
4724;SDS011;2376;53.544;10.226;2022-10-16T08:22:58;7.07;;;2.57;;
4724;SDS011;2376;53.544;10.226;2022-10-16T08:25:26;2.80;;;2.60;;
4724;SDS011;2376;53.544;10.226;2022-10-16T08:27:53;7.43;;;2.80;;
4724;SDS011;2376;53.544;10.226;2022-10-16T08:30:20;4.20;;;2.30;;
4724;SDS011;2376;53.544;10.226;2022-10-16T08:32:48;2.77;;;2.60;;
4724;SDS011;2376;53.544;10.226;2022-10-16T08:35:16;2.23;;;2.03;;
4724;SDS011;2376;53.544;10.226;2022-10-16T08:37:43;3.37;;;2.20;;
4724;SDS011;2376;53.544;10.226;2022-10-16T08:40:15;2.97;;;2.43;;
4724;SDS011;2376;53.544;10.226;2022-10-16T08:42:52;1.70;;;1.60;;
4724;SDS011;2376;53.544;10.226;2022-10-16T08:45:52;4.27;;;2.70;;
4724;SDS011;2376;53.544;10.226;2022-10-16T08:48:34;2.10;;;2.00;;
4724;SDS011;2376;53.544;10.226;2022-10-16T08:51:08;2.33;;;2.13;;
4724;SDS011;2376;53.544;10.226;2022-10-16T08:53:43;3.83;;;1.77;;
4724;SDS011;2376;53.544;10.226;2022-10-16T08:56:14;2.07;;;1.97;;
4724;SDS011;2376;53.544;10.226;2022-10-16T08:58:43;3.60;;;2.03;;
4724;SDS011;2376;53.544;10.226;2022-10-16T09:01:12;2.00;;;1.60;;
4724;SDS011;2376;53.544;10.226;2022-10-16T09:03:48;1.60;;;1.50;;
4724;SDS011;2376;53.544;10.226;2022-10-16T09:06:31;2.17;;;2.07;;
4724;SDS011;2376;53.544;10.226;2022-10-16T09:12:11;4.03;;;1.70;;
4724;SDS011;2376;53.544;10.226;2022-10-16T09:14:49;2.20;;;2.00;;
4724;SDS011;2376;53.544;10.226;2022-10-16T09:17:30;1.90;;;1.80;;
4724;SDS011;2376;53.544;10.226;2022-10-16T09:20:09;4.50;;;2.17;;
4724;SDS011;2376;53.544;10.226;2022-10-16T09:22:45;6.90;;;3.70;;
4724;SDS011;2376;53.544;10.226;2022-10-16T09:25:12;3.23;;;2.33;;
4724;SDS011;2376;53.544;10.226;2022-10-16T09:27:41;4.23;;;1.87;;
4724;SDS011;2376;53.544;10.226;2022-10-16T09:30:11;2.10;;;1.97;;
4724;SDS011;2376;53.544;10.226;2022-10-16T09:32:39;1.77;;;1.67;;
4724;SDS011;2376;53.544;10.226;2022-10-16T09:35:09;1.87;;;1.73;;
4724;SDS011;2376;53.544;10.226;2022-10-16T09:37:40;5.47;;;2.63;;
4724;SDS011;2376;53.544;10.226;2022-10-16T09:40:13;2.17;;;1.93;;
4724;SDS011;2376;53.544;10.226;2022-10-16T09:42:57;2.63;;;1.33;;
4724;SDS011;2376;53.544;10.226;2022-10-16T09:45:28;2.10;;;1.37;;
4724;SDS011;2376;53.544;10.226;2022-10-16T09:47:55;1.90;;;1.53;;
4724;SDS011;2376;53.544;10.226;2022-10-16T09:50:23;1.73;;;1.60;;
4724;SDS011;2376;53.544;10.226;2022-10-16T09:53:02;5.00;;;1.70;;
4724;SDS011;2376;53.544;10.226;2022-10-16T09:55:32;3.67;;;1.70;;
4724;SDS011;2376;53.544;10.226;2022-10-16T09:57:58;1.80;;;1.40;;
4724;SDS011;2376;53.544;10.226;2022-10-16T10:00:25;1.83;;;1.73;;
4724;SDS011;2376;53.544;10.226;2022-10-16T10:02:52;3.67;;;1.20;;
4724;SDS011;2376;53.544;10.226;2022-10-16T10:05:20;1.53;;;1.43;;
4724;SDS011;2376;53.544;10.226;2022-10-16T10:07:53;1.90;;;1.60;;
4724;SDS011;2376;53.544;10.226;2022-10-16T10:10:22;1.63;;;1.17;;
4724;SDS011;2376;53.544;10.226;2022-10-16T10:12:52;1.10;;;1.00;;
4724;SDS011;2376;53.544;10.226;2022-10-16T10:15:20;1.20;;;1.10;;
4724;SDS011;2376;53.544;10.226;2022-10-16T10:17:49;2.43;;;1.37;;
4724;SDS011;2376;53.544;10.226;2022-10-16T10:20:25;2.37;;;1.70;;
4724;SDS011;2376;53.544;10.226;2022-10-16T10:22:53;1.40;;;1.20;;
4724;SDS011;2376;53.544;10.226;2022-10-16T10:25:24;1.50;;;1.13;;
4724;SDS011;2376;53.544;10.226;2022-10-16T10:31:00;4.80;;;1.70;;
4724;SDS011;2376;53.544;10.226;2022-10-16T10:33:35;2.93;;;1.40;;
4724;SDS011;2376;53.544;10.226;2022-10-16T10:36:25;1.97;;;1.30;;
4724;SDS011;2376;53.544;10.226;2022-10-16T10:38:57;1.43;;;1.30;;
4724;SDS011;2376;53.544;10.226;2022-10-16T10:44:29;3.03;;;1.30;;
4724;SDS011;2376;53.544;10.226;2022-10-16T10:47:19;2.10;;;1.27;;
4724;SDS011;2376;53.544;10.226;2022-10-16T10:49:59;4.17;;;1.20;;
4724;SDS011;2376;53.544;10.226;2022-10-16T10:52:34;1.30;;;1.10;;
4724;SDS011;2376;53.544;10.226;2022-10-16T10:55:20;1.97;;;1.20;;
4724;SDS011;2376;53.544;10.226;2022-10-16T11:00:50;1.53;;;0.90;;
4724;SDS011;2376;53.544;10.226;2022-10-16T11:03:27;3.90;;;1.70;;
4724;SDS011;2376;53.544;10.226;2022-10-16T11:06:05;1.83;;;1.73;;
4724;SDS011;2376;53.544;10.226;2022-10-16T11:08:37;2.60;;;1.07;;
4724;SDS011;2376;53.544;10.226;2022-10-16T11:11:09;1.23;;;1.10;;
4724;SDS011;2376;53.544;10.226;2022-10-16T11:13:42;1.10;;;1.00;;
4724;SDS011;2376;53.544;10.226;2022-10-16T11:16:17;4.20;;;1.20;;
4724;SDS011;2376;53.544;10.226;2022-10-16T11:18:49;3.50;;;1.23;;
4724;SDS011;2376;53.544;10.226;2022-10-16T11:21:21;2.60;;;1.23;;
4724;SDS011;2376;53.544;10.226;2022-10-16T11:23:51;3.30;;;1.20;;
4724;SDS011;2376;53.544;10.226;2022-10-16T11:26:21;2.30;;;1.20;;
4724;SDS011;2376;53.544;10.226;2022-10-16T11:28:51;1.40;;;0.93;;
4724;SDS011;2376;53.544;10.226;2022-10-16T11:31:24;0.90;;;0.90;;
4724;SDS011;2376;53.544;10.226;2022-10-16T11:33:58;1.63;;;0.87;;
4724;SDS011;2376;53.544;10.226;2022-10-16T11:36:32;2.70;;;1.10;;
4724;SDS011;2376;53.544;10.226;2022-10-16T11:39:03;2.33;;;1.07;;
4724;SDS011;2376;53.544;10.226;2022-10-16T11:41:39;1.73;;;1.00;;
4724;SDS011;2376;53.544;10.226;2022-10-16T11:44:18;3.07;;;1.30;;
4724;SDS011;2376;53.544;10.226;2022-10-16T11:46:58;1.80;;;1.00;;
4724;SDS011;2376;53.544;10.226;2022-10-16T11:49:33;2.03;;;1.00;;
4724;SDS011;2376;53.544;10.226;2022-10-16T11:52:05;2.63;;;0.97;;
4724;SDS011;2376;53.544;10.226;2022-10-16T11:54:39;2.73;;;1.00;;
4724;SDS011;2376;53.544;10.226;2022-10-16T11:57:11;4.67;;;1.20;;
4724;SDS011;2376;53.544;10.226;2022-10-16T11:59:42;1.97;;;1.07;;
4724;SDS011;2376;53.544;10.226;2022-10-16T12:02:26;1.10;;;1.00;;
4724;SDS011;2376;53.544;10.226;2022-10-16T12:05:03;2.50;;;0.97;;
4724;SDS011;2376;53.544;10.226;2022-10-16T12:07:39;0.80;;;0.80;;
4724;SDS011;2376;53.544;10.226;2022-10-16T12:10:18;1.53;;;0.90;;
4724;SDS011;2376;53.544;10.226;2022-10-16T12:12:47;1.20;;;0.90;;
4724;SDS011;2376;53.544;10.226;2022-10-16T12:15:19;1.77;;;1.20;;
4724;SDS011;2376;53.544;10.226;2022-10-16T12:17:49;3.67;;;1.30;;
4724;SDS011;2376;53.544;10.226;2022-10-16T12:20:25;1.70;;;0.93;;
4724;SDS011;2376;53.544;10.226;2022-10-16T12:22:56;2.20;;;1.00;;
4724;SDS011;2376;53.544;10.226;2022-10-16T12:25:26;2.80;;;1.30;;
4724;SDS011;2376;53.544;10.226;2022-10-16T12:27:55;1.93;;;1.00;;
4724;SDS011;2376;53.544;10.226;2022-10-16T12:30:24;1.57;;;1.07;;
4724;SDS011;2376;53.544;10.226;2022-10-16T12:32:54;1.37;;;1.10;;
4724;SDS011;2376;53.544;10.226;2022-10-16T12:35:23;3.73;;;1.10;;
4724;SDS011;2376;53.544;10.226;2022-10-16T12:37:52;1.50;;;1.20;;
4724;SDS011;2376;53.544;10.226;2022-10-16T12:40:26;2.23;;;1.27;;
4724;SDS011;2376;53.544;10.226;2022-10-16T12:42:55;1.77;;;0.90;;
4724;SDS011;2376;53.544;10.226;2022-10-16T12:45:26;2.80;;;1.43;;
4724;SDS011;2376;53.544;10.226;2022-10-16T12:47:57;1.57;;;0.90;;
4724;SDS011;2376;53.544;10.226;2022-10-16T12:50:27;2.20;;;1.20;;
4724;SDS011;2376;53.544;10.226;2022-10-16T12:52:57;5.27;;;1.30;;
4724;SDS011;2376;53.544;10.226;2022-10-16T12:55:24;1.33;;;1.00;;
4724;SDS011;2376;53.544;10.226;2022-10-16T13:00:48;4.20;;;1.20;;
4724;SDS011;2376;53.544;10.226;2022-10-16T13:06:20;2.40;;;1.40;;
4724;SDS011;2376;53.544;10.226;2022-10-16T13:08:56;1.83;;;1.03;;
4724;SDS011;2376;53.544;10.226;2022-10-16T13:11:39;2.93;;;1.13;;
4724;SDS011;2376;53.544;10.226;2022-10-16T13:14:22;4.20;;;1.40;;
4724;SDS011;2376;53.544;10.226;2022-10-16T13:17:01;2.20;;;1.07;;
4724;SDS011;2376;53.544;10.226;2022-10-16T13:19:38;2.63;;;1.30;;
4724;SDS011;2376;53.544;10.226;2022-10-16T13:22:14;1.10;;;1.00;;
4724;SDS011;2376;53.544;10.226;2022-10-16T13:24:51;1.50;;;1.00;;
4724;SDS011;2376;53.544;10.226;2022-10-16T13:27:29;2.40;;;1.50;;
4724;SDS011;2376;53.544;10.226;2022-10-16T13:30:09;2.83;;;1.37;;
4724;SDS011;2376;53.544;10.226;2022-10-16T13:32:39;2.83;;;1.10;;
4724;SDS011;2376;53.544;10.226;2022-10-16T13:35:19;1.40;;;1.23;;
4724;SDS011;2376;53.544;10.226;2022-10-16T13:37:47;4.50;;;1.30;;
4724;SDS011;2376;53.544;10.226;2022-10-16T13:40:18;2.30;;;1.20;;
4724;SDS011;2376;53.544;10.226;2022-10-16T13:42:46;1.20;;;1.00;;
4724;SDS011;2376;53.544;10.226;2022-10-16T13:45:19;2.20;;;1.23;;
4724;SDS011;2376;53.544;10.226;2022-10-16T13:47:46;2.63;;;1.63;;
4724;SDS011;2376;53.544;10.226;2022-10-16T13:50:14;3.20;;;1.10;;
4724;SDS011;2376;53.544;10.226;2022-10-16T13:52:43;2.67;;;1.20;;
4724;SDS011;2376;53.544;10.226;2022-10-16T13:55:11;3.63;;;1.20;;
4724;SDS011;2376;53.544;10.226;2022-10-16T13:57:39;6.93;;;1.20;;
4724;SDS011;2376;53.544;10.226;2022-10-16T14:00:17;3.30;;;1.00;;
4724;SDS011;2376;53.544;10.226;2022-10-16T14:02:45;1.50;;;1.40;;
4724;SDS011;2376;53.544;10.226;2022-10-16T14:05:17;1.43;;;1.17;;
4724;SDS011;2376;53.544;10.226;2022-10-16T14:07:47;2.37;;;1.30;;
4724;SDS011;2376;53.544;10.226;2022-10-16T14:10:20;2.63;;;1.40;;
4724;SDS011;2376;53.544;10.226;2022-10-16T14:12:57;1.10;;;1.00;;
4724;SDS011;2376;53.544;10.226;2022-10-16T14:15:25;1.87;;;1.10;;
4724;SDS011;2376;53.544;10.226;2022-10-16T14:17:52;2.50;;;1.13;;
4724;SDS011;2376;53.544;10.226;2022-10-16T14:20:20;1.50;;;1.40;;
4724;SDS011;2376;53.544;10.226;2022-10-16T14:22:59;4.20;;;1.90;;
4724;SDS011;2376;53.544;10.226;2022-10-16T14:25:28;3.90;;;1.33;;
4724;SDS011;2376;53.544;10.226;2022-10-16T14:27:57;2.03;;;0.90;;
4724;SDS011;2376;53.544;10.226;2022-10-16T14:30:25;2.07;;;1.30;;
4724;SDS011;2376;53.544;10.226;2022-10-16T14:32:53;1.70;;;1.53;;
4724;SDS011;2376;53.544;10.226;2022-10-16T14:35:23;1.73;;;1.00;;
4724;SDS011;2376;53.544;10.226;2022-10-16T14:37:52;4.73;;;1.60;;
4724;SDS011;2376;53.544;10.226;2022-10-16T14:40:21;5.60;;;1.43;;
4724;SDS011;2376;53.544;10.226;2022-10-16T14:42:50;4.23;;;1.10;;
4724;SDS011;2376;53.544;10.226;2022-10-16T14:45:18;2.97;;;1.20;;
4724;SDS011;2376;53.544;10.226;2022-10-16T14:47:48;2.63;;;1.17;;
4724;SDS011;2376;53.544;10.226;2022-10-16T14:50:16;3.63;;;1.40;;
4724;SDS011;2376;53.544;10.226;2022-10-16T14:52:43;11.90;;;1.87;;
4724;SDS011;2376;53.544;10.226;2022-10-16T14:55:09;2.07;;;1.03;;
4724;SDS011;2376;53.544;10.226;2022-10-16T14:57:38;2.10;;;1.37;;
4724;SDS011;2376;53.544;10.226;2022-10-16T15:00:08;3.97;;;1.00;;
4724;SDS011;2376;53.544;10.226;2022-10-16T15:02:41;2.87;;;1.30;;
4724;SDS011;2376;53.544;10.226;2022-10-16T15:05:11;2.40;;;1.57;;
4724;SDS011;2376;53.544;10.226;2022-10-16T15:07:39;4.80;;;1.70;;
4724;SDS011;2376;53.544;10.226;2022-10-16T15:10:06;3.60;;;1.50;;
4724;SDS011;2376;53.544;10.226;2022-10-16T15:12:33;2.63;;;1.47;;
4724;SDS011;2376;53.544;10.226;2022-10-16T15:15:02;4.23;;;1.53;;
4724;SDS011;2376;53.544;10.226;2022-10-16T15:17:41;3.80;;;1.20;;
4724;SDS011;2376;53.544;10.226;2022-10-16T15:20:08;3.83;;;1.70;;
4724;SDS011;2376;53.544;10.226;2022-10-16T15:22:35;6.30;;;1.40;;
4724;SDS011;2376;53.544;10.226;2022-10-16T15:25:04;1.50;;;1.23;;
4724;SDS011;2376;53.544;10.226;2022-10-16T15:27:35;4.10;;;1.57;;
4724;SDS011;2376;53.544;10.226;2022-10-16T15:30:06;6.23;;;1.30;;
4724;SDS011;2376;53.544;10.226;2022-10-16T15:32:33;2.30;;;0.97;;
4724;SDS011;2376;53.544;10.226;2022-10-16T15:35:00;4.20;;;1.40;;